createdAt,value
2022-09-15T09:49:55.955Z,680.63
2022-09-15T09:50:55.914Z,708.75
2022-09-15T09:51:55.899Z,731.25
2022-09-15T09:52:55.898Z,748.13
2022-09-15T09:53:55.869Z,787.50
2022-09-15T09:54:55.849Z,810.00
2022-09-15T09:55:55.837Z,804.38
2022-09-15T09:56:55.816Z,793.13
2022-09-15T09:57:55.825Z,759.38
2022-09-15T09:58:55.795Z,708.75
2022-09-15T09:59:55.770Z,652.50
2022-09-15T10:08:43.400Z,731.25
2022-09-15T10:09:43.369Z,725.63
2022-09-15T10:25:17.896Z,714.38
2022-09-15T10:26:17.857Z,680.63
2022-09-15T10:27:17.845Z,652.50
2022-09-15T10:28:17.848Z,601.88
2022-09-15T10:29:17.821Z,551.25
2022-09-15T10:35:59.540Z,849.38
2022-09-15T10:36:59.470Z,871.88
2022-09-15T10:37:59.467Z,855.00
2022-09-15T10:38:59.453Z,810.00
2022-09-15T10:39:59.508Z,759.38
2022-09-15T10:40:59.511Z,759.38
2022-09-15T10:44:12.306Z,708.75
2022-09-15T10:46:16.977Z,736.88
2022-09-15T10:47:16.901Z,753.75
2022-09-15T10:48:16.889Z,787.50
2022-09-15T10:49:16.882Z,793.13
2022-09-15T10:50:16.863Z,765.00
2022-09-15T10:51:16.829Z,736.88
2022-09-15T10:52:16.836Z,691.88
2022-09-15T10:53:16.798Z,714.38
2022-09-15T10:54:16.793Z,742.50
2022-09-15T10:55:22.087Z,770.63
2022-09-15T10:56:16.754Z,793.13
2022-09-15T10:57:16.784Z,826.88
2022-09-15T10:58:16.736Z,832.50
2022-09-15T10:59:16.708Z,838.13
2022-09-15T11:00:16.703Z,821.25
2022-09-15T11:01:16.740Z,815.63
2022-09-15T11:02:16.722Z,781.88
2022-09-15T11:03:16.649Z,765.00
2022-09-15T11:04:16.633Z,770.63
2022-09-15T11:05:20.562Z,787.50
2022-09-15T11:06:16.613Z,804.38
2022-09-15T11:07:16.597Z,832.50
2022-09-15T11:08:16.571Z,860.63
2022-09-15T11:09:16.565Z,860.63
2022-09-15T11:10:16.544Z,838.13
2022-09-15T11:11:16.542Z,804.38
2022-09-15T11:12:16.521Z,787.50
2022-09-15T11:13:16.498Z,742.50
2022-09-15T11:14:16.493Z,680.63
2022-09-15T11:15:16.477Z,613.13
2022-09-15T11:55:23.315Z,742.50
2022-09-15T11:56:23.276Z,770.63
2022-09-15T11:57:23.268Z,821.25
2022-09-15T11:58:23.246Z,877.50
2022-09-15T11:59:23.234Z,933.75
2022-09-15T12:00:23.223Z,1333.13
2022-09-15T12:01:23.190Z,2120.63
2022-09-15T12:02:23.292Z,1822.50
2022-09-15T12:03:23.266Z,1029.38
2022-09-15T12:04:23.155Z,973.13
2022-09-15T12:05:23.129Z,877.50
2022-09-15T12:06:23.114Z,1057.50
2022-09-15T12:07:23.107Z,883.13
2022-09-15T12:08:23.106Z,860.63
2022-09-15T12:09:23.074Z,866.25
2022-09-15T12:10:23.091Z,753.75
2022-09-15T12:11:23.076Z,675.00
2022-09-15T12:12:23.076Z,630.00
2022-09-15T12:26:04.700Z,635.63
2022-09-15T12:27:04.681Z,590.63
2022-09-15T12:28:04.675Z,489.38
2022-09-15T12:29:04.649Z,551.25
2022-09-15T12:30:04.641Z,770.63
2022-09-15T12:31:04.650Z,984.38
2022-09-15T12:32:04.602Z,1012.50
2022-09-15T12:33:04.613Z,922.50
2022-09-15T12:34:04.562Z,815.63
2022-09-15T12:35:04.571Z,770.63
2022-09-15T12:36:04.539Z,736.88
2022-09-15T12:37:04.528Z,714.38
2022-09-15T12:38:04.500Z,731.25
2022-09-15T12:39:04.499Z,736.88
2022-09-15T12:40:04.584Z,759.38
2022-09-15T12:41:04.464Z,871.88
2022-09-15T12:42:04.451Z,1006.88
2022-09-15T12:43:04.422Z,1226.25
2022-09-15T12:44:04.435Z,1811.25
2022-09-15T12:45:04.400Z,1063.13
2022-09-15T12:46:04.400Z,1721.25
2022-09-15T12:47:04.361Z,1316.25
2022-09-15T12:48:04.346Z,1479.38
2022-09-15T12:49:04.352Z,1856.25
2022-09-15T12:50:04.365Z,2036.25
2022-09-15T12:51:04.313Z,1614.38
2022-09-15T12:52:04.286Z,1468.13
2022-09-15T12:53:04.271Z,1501.88
2022-09-15T12:54:04.283Z,1575.00
2022-09-15T12:55:04.252Z,1603.13
2022-09-15T12:56:04.240Z,1186.88
2022-09-15T12:57:04.222Z,1136.25
2022-09-15T12:58:04.201Z,978.75
2022-09-15T12:59:06.594Z,1231.88
2022-09-15T13:00:04.206Z,1226.25
2022-09-15T13:01:17.668Z,2705.63
2022-09-15T13:02:04.298Z,3133.13
2022-09-15T13:03:04.205Z,1985.63
2022-09-15T13:04:04.159Z,2896.88
2022-09-15T13:05:04.110Z,1957.50
2022-09-15T13:06:04.086Z,1681.88
2022-09-15T13:07:06.851Z,2126.25
2022-09-15T13:08:04.072Z,1192.50
2022-09-15T13:09:04.045Z,950.63
2022-09-15T13:10:04.047Z,1867.50
2022-09-15T13:11:04.016Z,618.75
2022-09-15T13:41:46.522Z,759.38
2022-09-15T13:42:46.502Z,900.00
2022-09-15T13:43:46.613Z,883.13
2022-09-15T13:44:46.469Z,1006.88
2022-09-15T13:45:46.527Z,1074.38
2022-09-15T13:46:46.441Z,860.63
2022-09-15T13:47:46.427Z,776.25
2022-09-15T13:48:46.502Z,1012.50
2022-09-15T13:49:46.397Z,725.63
2022-09-15T13:50:46.375Z,703.13
2022-09-15T13:51:50.310Z,686.25
2022-09-15T13:52:46.336Z,641.25
2022-09-15T13:53:46.329Z,624.38
2022-09-15T14:06:31.693Z,759.38
2022-09-15T14:07:31.685Z,871.88
2022-09-15T14:08:31.658Z,1220.63
2022-09-15T14:09:31.632Z,1698.75
2022-09-15T14:10:31.613Z,1102.50
2022-09-15T14:11:31.603Z,1063.13
2022-09-15T14:12:31.618Z,810.00
2022-09-15T14:13:31.568Z,753.75
2022-09-15T14:14:31.555Z,697.50
